createdAt,value
2019-03-06T00:00:43.518Z,19.07
2019-03-06T00:03:12.532Z,18.10
2019-03-06T00:05:41.349Z,17.63
2019-03-06T00:08:09.956Z,18.73
2019-03-06T00:10:38.648Z,16.23
2019-03-06T00:13:07.355Z,24.03
2019-03-06T00:15:35.932Z,25.73
2019-03-06T00:18:05.237Z,21.13
2019-03-06T00:20:35.511Z,19.33
2019-03-06T00:23:04.473Z,21.63
2019-03-06T00:25:33.096Z,24.47
2019-03-06T00:28:01.676Z,18.20
2019-03-06T00:30:30.710Z,20.10
2019-03-06T00:32:59.342Z,20.73
2019-03-06T00:35:33.315Z,22.27
2019-03-06T00:38:01.969Z,20.63
2019-03-06T00:40:50.369Z,22.97
2019-03-06T00:43:19.137Z,28.40
2019-03-06T00:45:47.970Z,23.93
2019-03-06T00:48:16.619Z,26.17
2019-03-06T00:50:45.654Z,22.27
2019-03-06T00:53:14.203Z,20.53
2019-03-06T00:55:42.768Z,19.37
2019-03-06T00:58:11.426Z,22.30
2019-03-06T01:00:40.053Z,20.87
2019-03-06T01:03:09.152Z,22.13
2019-03-06T01:05:37.815Z,16.10
2019-03-06T01:08:06.440Z,19.17
2019-03-06T01:10:35.048Z,23.07
2019-03-06T01:13:03.731Z,22.67
2019-03-06T01:15:32.556Z,17.70
2019-03-06T01:18:01.186Z,17.77
2019-03-06T01:20:30.053Z,20.93
2019-03-06T01:22:58.685Z,23.07
2019-03-06T01:25:27.240Z,23.17
2019-03-06T01:27:55.952Z,19.77
2019-03-06T01:30:25.994Z,18.13
2019-03-06T01:32:58.171Z,20.53
2019-03-06T01:35:46.207Z,19.80
2019-03-06T01:38:16.476Z,20.47
2019-03-06T01:40:46.722Z,18.63
2019-03-06T01:43:19.719Z,20.43
2019-03-06T01:45:48.399Z,19.73
2019-03-06T01:48:17.159Z,19.93
2019-03-06T01:50:45.818Z,21.07
2019-03-06T01:53:14.554Z,21.53
2019-03-06T01:55:43.126Z,23.83
2019-03-06T01:58:11.785Z,25.33
2019-03-06T02:00:40.780Z,25.90
2019-03-06T02:03:09.398Z,24.17
2019-03-06T02:05:37.998Z,23.23
2019-03-06T02:08:07.021Z,21.47
2019-03-06T02:10:35.643Z,21.57
2019-03-06T02:13:05.379Z,20.40
2019-03-06T02:15:33.943Z,21.70
2019-03-06T02:18:02.574Z,18.57
2019-03-06T02:20:31.238Z,16.57
2019-03-06T02:22:59.860Z,14.40
2019-03-06T02:25:28.676Z,16.70
2019-03-06T02:27:57.265Z,15.00
2019-03-06T02:30:26.602Z,15.90
2019-03-06T02:32:55.322Z,17.77
2019-03-06T02:35:23.979Z,21.40
2019-03-06T02:37:52.831Z,31.27
2019-03-06T02:40:21.457Z,24.50
2019-03-06T02:42:50.062Z,18.57
2019-03-06T02:45:20.727Z,18.03
2019-03-06T02:47:49.466Z,15.53
2019-03-06T02:50:19.226Z,16.33
2019-03-06T02:52:47.832Z,14.50
2019-03-06T02:55:17.767Z,16.47
2019-03-06T02:57:57.266Z,13.57
2019-03-06T03:00:45.672Z,12.20
2019-03-06T03:03:18.680Z,17.93
2019-03-06T03:05:48.929Z,13.10
2019-03-06T03:08:17.553Z,14.60
2019-03-06T03:10:46.490Z,12.17
2019-03-06T03:13:15.118Z,12.57
2019-03-06T03:15:43.739Z,13.40
2019-03-06T03:18:12.396Z,16.47
2019-03-06T03:20:41.011Z,15.83
2019-03-06T03:23:10.110Z,13.23
2019-03-06T03:25:38.771Z,11.43
2019-03-06T03:28:07.488Z,11.87
2019-03-06T03:30:36.114Z,10.63
2019-03-06T03:33:04.877Z,10.27
2019-03-06T03:35:33.527Z,13.73
2019-03-06T03:38:02.099Z,12.07
2019-03-06T03:40:30.695Z,11.90
2019-03-06T03:42:59.392Z,10.93
2019-03-06T03:45:28.013Z,12.20
2019-03-06T03:47:56.776Z,11.60
2019-03-06T03:50:25.821Z,11.87
2019-03-06T03:52:54.443Z,12.77
2019-03-06T03:55:23.111Z,12.73
2019-03-06T03:57:51.655Z,10.60
2019-03-06T04:00:24.355Z,11.20
2019-03-06T04:02:53.298Z,11.20
2019-03-06T04:05:21.846Z,13.57
2019-03-06T04:07:50.342Z,12.40
2019-03-06T04:10:19.009Z,9.60
2019-03-06T04:12:47.646Z,12.00
2019-03-06T04:15:17.874Z,12.33
2019-03-06T04:17:46.516Z,12.90
2019-03-06T04:20:16.381Z,19.57
2019-03-06T04:22:45.104Z,19.83
2019-03-06T04:25:14.216Z,15.17
2019-03-06T04:27:43.754Z,19.07
2019-03-06T04:30:19.478Z,21.00
2019-03-06T04:32:48.078Z,20.57
2019-03-06T04:35:19.574Z,18.97
2019-03-06T04:37:48.248Z,21.23
2019-03-06T04:40:17.347Z,17.23
2019-03-06T04:42:46.014Z,15.53
2019-03-06T04:45:16.749Z,23.43
2019-03-06T04:47:45.659Z,21.23
2019-03-06T04:50:15.087Z,19.77
2019-03-06T04:52:43.937Z,16.60
2019-03-06T04:55:13.967Z,13.83
2019-03-06T04:57:42.531Z,14.80
2019-03-06T05:00:19.105Z,14.80
2019-03-06T05:02:47.739Z,18.23
2019-03-06T05:05:16.572Z,15.13
2019-03-06T05:07:45.193Z,15.60
2019-03-06T05:10:14.900Z,19.53
2019-03-06T05:12:43.450Z,19.93
2019-03-06T05:15:14.421Z,23.73
2019-03-06T05:17:44.558Z,22.60
2019-03-06T05:20:13.217Z,18.07
2019-03-06T05:22:41.811Z,18.57
2019-03-06T05:25:10.437Z,20.03
2019-03-06T05:27:39.011Z,22.80
2019-03-06T05:30:15.862Z,21.00
2019-03-06T05:32:46.990Z,21.87
2019-03-06T05:35:33.436Z,23.60
2019-03-06T05:38:22.752Z,25.77
2019-03-06T05:40:51.415Z,27.10
2019-03-06T05:43:19.934Z,30.93
2019-03-06T05:45:48.733Z,27.83
2019-03-06T05:48:17.388Z,29.33
2019-03-06T05:50:46.017Z,30.00
2019-03-06T05:53:14.657Z,28.10
2019-03-06T05:55:43.244Z,28.10
2019-03-06T05:58:12.181Z,28.87
2019-03-06T06:00:40.808Z,27.73
2019-03-06T06:03:09.461Z,30.27
2019-03-06T06:05:38.025Z,28.03
2019-03-06T06:08:06.672Z,28.73
2019-03-06T06:10:35.558Z,30.47
2019-03-06T06:13:04.509Z,28.13
2019-03-06T06:15:33.135Z,30.00
2019-03-06T06:18:01.648Z,30.87
2019-03-06T06:20:30.267Z,28.10
2019-03-06T06:23:12.726Z,30.13
2019-03-06T06:25:41.289Z,27.27
2019-03-06T06:28:09.915Z,28.83
2019-03-06T06:30:39.357Z,30.17
2019-03-06T06:33:08.190Z,30.97
2019-03-06T06:35:36.886Z,32.07
2019-03-06T06:38:05.553Z,31.53
2019-03-06T06:40:35.680Z,53.77
2019-03-06T06:43:04.661Z,48.70
2019-03-06T06:45:33.613Z,36.23
2019-03-06T06:48:10.587Z,39.20
2019-03-06T06:51:00.997Z,37.87
2019-03-06T06:53:29.875Z,31.90
2019-03-06T06:56:25.715Z,35.37
2019-03-06T06:59:15.160Z,34.47
2019-03-06T07:02:03.423Z,36.10
2019-03-06T07:04:51.260Z,37.57
2019-03-06T07:07:33.280Z,34.83
2019-03-06T07:10:09.165Z,33.63
2019-03-06T07:12:42.110Z,39.23
2019-03-06T07:15:12.780Z,33.33
2019-03-06T07:17:43.046Z,35.33
2019-03-06T07:20:13.431Z,31.93
2019-03-06T07:22:43.887Z,27.73
2019-03-06T07:25:14.310Z,26.83
2019-03-06T07:27:53.431Z,22.40
2019-03-06T07:30:23.703Z,19.50
2019-03-06T07:33:11.992Z,22.00
2019-03-06T07:35:56.564Z,24.83
2019-03-06T07:38:25.678Z,21.40
2019-03-06T07:41:12.422Z,17.70
2019-03-06T07:44:01.133Z,20.17
2019-03-06T07:46:49.401Z,18.97
2019-03-06T07:49:44.822Z,16.53
2019-03-06T07:52:08.171Z,20.23
2019-03-06T07:54:44.118Z,17.13
2019-03-06T07:57:14.385Z,15.43
2019-03-06T07:59:43.291Z,15.17
2019-03-06T08:02:17.875Z,15.97
2019-03-06T08:04:54.487Z,19.23
2019-03-06T08:07:23.280Z,17.80
2019-03-06T08:09:52.015Z,16.00
2019-03-06T08:12:25.257Z,11.97
2019-03-06T08:14:55.583Z,15.80
2019-03-06T08:17:41.678Z,14.93
2019-03-06T08:20:30.256Z,13.70
2019-03-06T08:23:00.443Z,12.50
2019-03-06T08:25:47.602Z,12.43
2019-03-06T08:28:16.247Z,119.70
2019-03-06T08:30:58.516Z,14.40
2019-03-06T08:33:27.499Z,15.93
2019-03-06T08:35:56.149Z,11.10
2019-03-06T08:38:24.870Z,11.43
2019-03-06T08:40:53.440Z,12.93
2019-03-06T08:43:22.003Z,13.10
2019-03-06T08:46:08.963Z,11.57
2019-03-06T08:48:53.748Z,9.20
2019-03-06T08:51:40.270Z,8.40
2019-03-06T08:54:19.525Z,10.90
2019-03-06T08:56:52.323Z,4.93
2019-03-06T08:59:31.545Z,5.03
2019-03-06T09:02:04.779Z,4.43
2019-03-06T09:04:52.363Z,5.17
2019-03-06T09:07:22.676Z,6.77
2019-03-06T09:09:52.985Z,5.50
2019-03-06T09:12:32.335Z,8.80
2019-03-06T09:15:17.637Z,7.50
2019-03-06T09:18:09.052Z,7.93
2019-03-06T09:20:43.917Z,6.33
2019-03-06T09:23:22.576Z,6.70
2019-03-06T09:26:02.435Z,6.30
2019-03-06T09:28:32.672Z,5.23
2019-03-06T09:31:19.196Z,7.80
2019-03-06T09:34:04.496Z,5.77
2019-03-06T09:36:37.605Z,5.73
2019-03-06T09:39:26.768Z,8.03
2019-03-06T09:41:57.066Z,11.87
2019-03-06T09:44:29.922Z,6.33
2019-03-06T09:47:00.218Z,5.87
2019-03-06T09:49:30.411Z,5.17
2019-03-06T09:52:03.464Z,6.67
2019-03-06T09:54:42.894Z,5.20
2019-03-06T09:57:24.977Z,7.87
2019-03-06T09:59:55.282Z,4.70
2019-03-06T10:02:28.625Z,5.23
2019-03-06T10:05:01.458Z,6.33
2019-03-06T10:07:31.646Z,4.00
2019-03-06T10:10:18.760Z,3.87
2019-03-06T10:12:49.048Z,4.07
2019-03-06T10:15:25.553Z,3.47
2019-03-06T10:17:56.551Z,4.03
2019-03-06T10:20:25.973Z,3.97
2019-03-06T10:22:59.297Z,4.10
2019-03-06T10:25:30.122Z,5.97
2019-03-06T10:28:05.746Z,7.80
2019-03-06T10:30:26.438Z,4.90
2019-03-06T10:32:55.519Z,4.20
2019-03-06T10:35:24.234Z,6.23
2019-03-06T10:37:53.139Z,7.90
2019-03-06T10:40:21.767Z,5.97
2019-03-06T10:42:50.838Z,6.50
2019-03-06T10:45:20.009Z,6.57
2019-03-06T10:47:48.832Z,7.30
2019-03-06T10:50:26.802Z,6.73
2019-03-06T10:52:50.644Z,7.40
2019-03-06T10:55:20.209Z,11.30
2019-03-06T10:57:49.303Z,5.83
2019-03-06T11:00:31.071Z,4.40
2019-03-06T11:03:00.070Z,6.07
2019-03-06T11:05:33.473Z,5.60
2019-03-06T11:08:03.128Z,5.83
2019-03-06T11:10:33.654Z,6.20
2019-03-06T11:13:04.544Z,7.63
2019-03-06T11:15:33.609Z,5.30
2019-03-06T11:18:02.422Z,6.20
2019-03-06T11:20:36.006Z,5.70
2019-03-06T11:23:11.900Z,5.80
2019-03-06T11:25:41.337Z,7.73
2019-03-06T11:28:12.293Z,4.60
2019-03-06T11:30:47.158Z,6.77
2019-03-06T11:33:16.294Z,6.30
2019-03-06T11:35:45.720Z,4.10
2019-03-06T11:38:14.952Z,4.73
2019-03-06T11:40:43.609Z,4.03
2019-03-06T11:43:12.826Z,4.93
2019-03-06T11:45:42.490Z,3.97
2019-03-06T11:48:12.409Z,4.30
2019-03-06T11:50:41.356Z,4.97
2019-03-06T11:53:10.291Z,4.80
2019-03-06T11:55:38.921Z,3.77
2019-03-06T11:58:10.086Z,5.63
2019-03-06T12:00:42.119Z,4.70
2019-03-06T12:03:11.021Z,6.10
2019-03-06T12:05:39.962Z,5.83
2019-03-06T12:08:14.447Z,6.37
2019-03-06T12:10:43.727Z,4.67
2019-03-06T12:13:14.461Z,4.63
2019-03-06T12:15:45.450Z,6.53
2019-03-06T12:18:14.980Z,3.63
2019-03-06T12:20:43.998Z,6.63
2019-03-06T12:23:12.661Z,4.10
2019-03-06T12:25:41.989Z,4.77
2019-03-06T12:28:12.335Z,6.40
2019-03-06T12:30:41.403Z,6.10
2019-03-06T12:33:11.529Z,6.73
2019-03-06T12:35:40.156Z,6.13
2019-03-06T12:38:10.806Z,5.27
2019-03-06T12:40:40.115Z,5.33
2019-03-06T12:43:08.736Z,7.10
2019-03-06T12:45:37.805Z,7.80
2019-03-06T12:48:12.379Z,6.43
2019-03-06T12:50:41.904Z,5.60
2019-03-06T12:53:10.589Z,4.80
2019-03-06T12:55:39.293Z,4.77
2019-03-06T12:58:07.907Z,7.03
2019-03-06T13:00:37.147Z,3.50
2019-03-06T13:03:06.000Z,4.67
2019-03-06T13:05:34.728Z,7.50
2019-03-06T13:08:03.492Z,5.87
2019-03-06T13:10:32.042Z,3.53
2019-03-06T13:13:00.668Z,7.17
2019-03-06T13:15:29.593Z,4.90
2019-03-06T13:17:58.221Z,3.90
2019-03-06T13:20:26.856Z,3.77
2019-03-06T13:22:55.543Z,5.00
2019-03-06T13:25:25.280Z,5.13
2019-03-06T13:27:55.291Z,5.67
2019-03-06T13:30:26.602Z,4.30
2019-03-06T13:32:56.865Z,7.00
2019-03-06T13:35:27.080Z,6.00
2019-03-06T13:37:55.740Z,3.80
2019-03-06T13:40:24.371Z,5.40
2019-03-06T13:42:53.105Z,6.90
2019-03-06T13:45:22.086Z,8.27
2019-03-06T13:47:51.095Z,6.97
2019-03-06T13:50:19.951Z,4.77
2019-03-06T13:52:48.604Z,5.23
2019-03-06T13:55:17.921Z,4.87
2019-03-06T13:57:47.441Z,6.03
2019-03-06T14:00:25.826Z,5.27
2019-03-06T14:02:54.469Z,7.10
2019-03-06T14:05:23.939Z,7.67
2019-03-06T14:07:56.416Z,5.27
2019-03-06T14:10:26.797Z,7.67
2019-03-06T14:12:55.617Z,5.40
2019-03-06T14:15:24.947Z,7.17
2019-03-06T14:17:53.659Z,5.37
2019-03-06T14:20:25.477Z,7.13
2019-03-06T14:22:54.534Z,4.87
2019-03-06T14:25:23.945Z,5.43
2019-03-06T14:27:52.835Z,6.80
2019-03-06T14:30:29.343Z,5.07
2019-03-06T14:32:58.664Z,7.23
2019-03-06T14:35:28.503Z,5.90
2019-03-06T14:37:57.200Z,5.93
2019-03-06T14:40:33.861Z,5.00
2019-03-06T14:43:05.234Z,5.13
2019-03-06T14:45:34.268Z,5.07
2019-03-06T14:48:02.901Z,5.70
2019-03-06T14:50:31.513Z,4.73
2019-03-06T14:53:00.928Z,9.03
2019-03-06T14:55:29.539Z,7.17
2019-03-06T14:57:58.134Z,6.60
2019-03-06T15:00:26.775Z,7.13
2019-03-06T15:02:55.400Z,5.30
2019-03-06T15:05:25.365Z,4.97
2019-03-06T15:07:54.260Z,7.10
2019-03-06T15:10:23.269Z,5.23
2019-03-06T15:12:51.997Z,5.20
2019-03-06T15:15:21.429Z,7.03
2019-03-06T15:17:50.065Z,8.07
2019-03-06T15:20:23.771Z,7.40
2019-03-06T15:22:54.208Z,10.17
2019-03-06T15:25:27.659Z,6.87
2019-03-06T15:27:56.589Z,9.47
2019-03-06T15:30:25.322Z,6.97
2019-03-06T15:32:53.956Z,6.70
2019-03-06T15:35:23.402Z,9.40
2019-03-06T15:37:52.245Z,9.13
2019-03-06T15:40:31.095Z,9.20
2019-03-06T15:43:01.508Z,10.23
2019-03-06T15:45:34.045Z,9.20
2019-03-06T15:48:02.912Z,13.10
2019-03-06T15:50:31.626Z,17.53
2019-03-06T15:53:00.327Z,12.17
2019-03-06T15:55:29.915Z,12.93
2019-03-06T15:57:58.540Z,9.97
2019-03-06T16:00:45.777Z,16.07
2019-03-06T16:03:09.755Z,14.90
2019-03-06T16:05:38.561Z,15.07
2019-03-06T16:08:09.793Z,19.87
2019-03-06T16:10:39.132Z,22.67
2019-03-06T16:13:08.265Z,19.67
2019-03-06T16:15:37.650Z,18.23
2019-03-06T16:18:08.960Z,23.17
2019-03-06T16:20:38.191Z,17.67
2019-03-06T16:23:08.240Z,16.53
2019-03-06T16:25:40.019Z,20.27
2019-03-06T16:28:07.663Z,17.30
2019-03-06T16:30:36.256Z,18.67
2019-03-06T16:33:04.924Z,17.03
2019-03-06T16:35:33.585Z,20.43
2019-03-06T16:38:02.220Z,24.23
2019-03-06T16:40:31.269Z,30.13
2019-03-06T16:43:00.174Z,28.27
2019-03-06T16:45:30.213Z,31.63
2019-03-06T16:48:00.516Z,27.77
2019-03-06T16:50:29.362Z,23.40
2019-03-06T16:52:58.053Z,24.97
2019-03-06T16:55:27.622Z,19.23
2019-03-06T16:57:57.363Z,24.87
2019-03-06T17:00:31.662Z,23.50
2019-03-06T17:03:05.438Z,24.53
2019-03-06T17:05:34.413Z,23.33
2019-03-06T17:08:03.746Z,25.57
2019-03-06T17:10:34.341Z,25.70
2019-03-06T17:13:03.470Z,24.23
2019-03-06T17:15:32.773Z,25.27
2019-03-06T17:18:02.072Z,24.63
2019-03-06T17:20:37.854Z,27.13
2019-03-06T17:23:06.917Z,26.97
2019-03-06T17:25:35.979Z,38.30
2019-03-06T17:28:04.935Z,33.43
2019-03-06T17:30:37.416Z,40.73
2019-03-06T17:33:10.902Z,369.33
2019-03-06T17:35:40.447Z,452.13
2019-03-06T17:38:14.029Z,426.60
2019-03-06T17:40:43.398Z,407.57
2019-03-06T17:43:13.047Z,440.63
2019-03-06T17:45:42.377Z,168.67
2019-03-06T17:48:11.370Z,89.80
2019-03-06T17:50:40.023Z,98.13
2019-03-06T17:53:09.068Z,111.07
2019-03-06T17:55:37.747Z,187.00
2019-03-06T17:58:06.682Z,98.37
2019-03-06T18:00:40.260Z,63.87
2019-03-06T18:03:10.771Z,62.90
2019-03-06T18:05:39.487Z,50.43
2019-03-06T18:08:08.137Z,57.70
2019-03-06T18:10:36.838Z,70.63
2019-03-06T18:13:05.869Z,79.47
2019-03-06T18:15:34.506Z,73.00
2019-03-06T18:18:03.374Z,62.03
2019-03-06T18:20:31.992Z,64.93
2019-03-06T18:23:00.724Z,64.77
2019-03-06T18:25:29.327Z,60.33
2019-03-06T18:27:57.971Z,55.00
2019-03-06T18:30:27.964Z,63.00
2019-03-06T18:32:56.631Z,50.17
2019-03-06T18:35:25.301Z,48.03
2019-03-06T18:37:54.020Z,48.20
2019-03-06T18:40:24.087Z,51.67
2019-03-06T18:42:54.764Z,47.30
2019-03-06T18:45:23.440Z,46.20
2019-03-06T18:47:52.320Z,42.87
2019-03-06T18:50:24.690Z,40.43
2019-03-06T18:52:53.281Z,41.23
2019-03-06T18:55:22.271Z,41.57
2019-03-06T18:57:51.526Z,37.67
2019-03-06T19:00:33.739Z,40.70
2019-03-06T19:03:02.888Z,40.33
2019-03-06T19:05:31.532Z,39.40
2019-03-06T19:08:00.295Z,41.67
2019-03-06T19:10:28.939Z,43.37
2019-03-06T19:12:57.590Z,44.27
2019-03-06T19:15:27.480Z,44.90
2019-03-06T19:17:56.224Z,48.97
2019-03-06T19:20:25.495Z,47.57
2019-03-06T19:22:54.752Z,46.73
2019-03-06T19:25:24.187Z,46.77
2019-03-06T19:27:52.904Z,43.73
2019-03-06T19:30:27.967Z,45.77
2019-03-06T19:32:56.897Z,43.70
2019-03-06T19:35:27.806Z,44.80
2019-03-06T19:37:56.532Z,49.43
2019-03-06T19:40:25.827Z,45.27
2019-03-06T19:42:54.487Z,45.70
2019-03-06T19:45:24.529Z,45.87
2019-03-06T19:47:53.173Z,48.00
2019-03-06T19:50:25.623Z,44.87
2019-03-06T19:52:54.855Z,41.13
2019-03-06T19:55:24.123Z,38.47
2019-03-06T19:58:00.986Z,41.43
2019-03-06T20:00:31.108Z,37.70
2019-03-06T20:03:00.783Z,34.17
2019-03-06T20:05:35.237Z,34.87
2019-03-06T20:08:07.484Z,34.63
2019-03-06T20:10:36.518Z,28.70
2019-03-06T20:13:05.786Z,32.17
2019-03-06T20:15:34.417Z,37.47
2019-03-06T20:18:03.517Z,38.47
2019-03-06T20:20:32.470Z,35.43
2019-03-06T20:23:01.354Z,33.97
2019-03-06T20:25:30.138Z,31.97
2019-03-06T20:27:58.812Z,30.70
2019-03-06T20:30:27.855Z,29.83
2019-03-06T20:32:57.216Z,30.83
2019-03-06T20:35:26.544Z,28.63
2019-03-06T20:37:55.624Z,31.53
2019-03-06T20:40:24.417Z,29.13
2019-03-06T20:42:53.069Z,26.07
2019-03-06T20:45:22.181Z,25.67
2019-03-06T20:47:50.903Z,20.63
2019-03-06T20:50:20.625Z,20.53
2019-03-06T20:52:50.347Z,17.30
2019-03-06T20:55:19.420Z,19.83
2019-03-06T20:57:48.294Z,14.67
2019-03-06T21:00:19.991Z,13.37
2019-03-06T21:02:49.021Z,13.90
2019-03-06T21:05:17.909Z,17.00
2019-03-06T21:07:46.558Z,14.43
2019-03-06T21:10:17.278Z,14.90
2019-03-06T21:12:45.997Z,13.57
2019-03-06T21:15:20.224Z,14.33
2019-03-06T21:17:48.849Z,15.47
2019-03-06T21:20:21.592Z,16.40
2019-03-06T21:22:50.827Z,15.90
2019-03-06T21:25:20.457Z,15.03
2019-03-06T21:27:49.388Z,13.90
2019-03-06T21:30:29.432Z,13.50
2019-03-06T21:32:58.286Z,15.40
2019-03-06T21:35:27.072Z,15.10
2019-03-06T21:37:55.752Z,13.33
2019-03-06T21:40:24.874Z,14.97
2019-03-06T21:42:53.518Z,20.03
2019-03-06T21:45:22.356Z,18.10
2019-03-06T21:47:51.047Z,16.63
2019-03-06T21:50:20.437Z,14.03
2019-03-06T21:52:49.277Z,15.47
2019-03-06T21:55:18.214Z,13.47
2019-03-06T21:57:47.217Z,14.33
2019-03-06T22:00:20.923Z,15.53
2019-03-06T22:02:49.644Z,17.63
2019-03-06T22:05:18.390Z,15.33
2019-03-06T22:07:50.183Z,15.87
2019-03-06T22:10:18.363Z,21.80
2019-03-06T22:12:47.014Z,17.40
2019-03-06T22:15:19.500Z,16.20
2019-03-06T22:17:48.173Z,17.47
2019-03-06T22:20:17.051Z,17.97
2019-03-06T22:22:45.833Z,16.70
2019-03-06T22:25:18.171Z,15.27
2019-03-06T22:27:47.220Z,13.90
2019-03-06T22:30:22.654Z,15.10
2019-03-06T22:32:51.269Z,13.67
2019-03-06T22:35:20.105Z,12.93
2019-03-06T22:37:48.855Z,14.07
2019-03-06T22:40:19.378Z,14.63
2019-03-06T22:42:48.128Z,13.13
2019-03-06T22:45:18.334Z,14.80
2019-03-06T22:47:47.119Z,14.50
2019-03-06T22:50:16.952Z,17.47
2019-03-06T22:52:45.701Z,15.27
2019-03-06T22:55:20.934Z,13.70
2019-03-06T22:57:49.549Z,13.13
2019-03-06T23:00:29.827Z,13.63
2019-03-06T23:02:58.956Z,15.30
2019-03-06T23:05:29.700Z,14.90
2019-03-06T23:07:58.377Z,14.30
2019-03-06T23:10:27.105Z,14.50
2019-03-06T23:12:55.822Z,13.23
2019-03-06T23:15:24.527Z,14.73
2019-03-06T23:17:53.173Z,14.37
2019-03-06T23:20:21.867Z,14.07
2019-03-06T23:22:50.558Z,14.37
2019-03-06T23:25:19.086Z,15.93
2019-03-06T23:27:47.772Z,15.67
2019-03-06T23:30:17.168Z,15.00
2019-03-06T23:32:46.277Z,16.10
2019-03-06T23:35:14.911Z,18.47
2019-03-06T23:37:43.562Z,14.33
2019-03-06T23:40:12.894Z,17.30
2019-03-06T23:42:41.533Z,17.83
2019-03-06T23:45:12.204Z,16.10
2019-03-06T23:47:41.104Z,16.43
2019-03-06T23:50:11.477Z,13.60
2019-03-06T23:52:57.783Z,14.60
2019-03-06T23:55:28.052Z,11.33
2019-03-06T23:57:57.275Z,13.23
